KBVO/BVO METAR and TAF weather

Enter ICAO airport designator
Station Type Date Time Source
KBVO METAR 2019/02/23 03:18 UTC NOAA

KBVO 230318Z AUTO 09003KT 1 1/2SM BR OVC002 06/06 A2993 RMK AO2 RAE01 P0000 T00610056


Station Type Date Time Source
KBVO Decoded METAR 2019/02/23 03:18 UTC NOAA

BARTLESVILLE MUNICIPAL AIRPORT , OK, United States (KBVO) 36-46N 96-01W 210M
Feb 22, 2019 - 10:18 PM EST / 2019.02.23 0318 UTC
Wind: from the E (090 degrees) at 3 MPH (3 KT):0
Visibility: 1 1/2 mile(s):0
Sky conditions: overcast
Weather: mist
Precipitation last hour: A trace
Temperature: 43.0 F (6.1 C)
Dew Point: 42.1 F (5.6 C)
Relative Humidity: 96%
Pressure (altimeter): 29.93 in. Hg (1013 hPa)
ob: KBVO 230318Z AUTO 09003KT 1 1/2SM BR OVC002 06/06 A2993 RMK AO2 RAE01 P0000 T00610056
cycle: 3

Station Type Date Time Source
KBVO TAF 2019/02/22 18:24 UTC NOAA

TAF KBVO 221723Z 2218/2318 07006KT 6SM BR OVC008
TEMPO 2218/2222 4SM -DZ BR
FM230200 14004KT 4SM -DZ BR OVC004
FM230900 14004KT 2SM -DZ BR OVC004
FM231600 19012G22KT P6SM BKN025


Example: see airport list